createdAt,value
2022-10-09T00:01:08.304Z,100587.81
2022-10-09T00:03:36.514Z,100586.78
2022-10-09T00:06:03.981Z,100586.56
2022-10-09T00:08:30.796Z,100589.31
2022-10-09T00:10:57.813Z,100588.38
2022-10-09T00:13:24.561Z,100595.69
2022-10-09T00:15:51.186Z,100584.13
2022-10-09T00:18:18.721Z,100593.50
2022-10-09T00:20:46.998Z,100589.25
2022-10-09T00:23:14.738Z,100590.19
2022-10-09T00:26:00.058Z,100586.53
2022-10-09T00:28:29.336Z,100586.72
2022-10-09T00:30:56.074Z,100582.06
2022-10-09T00:33:23.001Z,100581.31
2022-10-09T00:35:49.834Z,100567.31
2022-10-09T00:38:16.620Z,100574.41
2022-10-09T00:40:44.037Z,100573.66
2022-10-09T00:43:19.269Z,100571.84
2022-10-09T00:45:55.152Z,100564.09
2022-10-09T00:48:22.797Z,100564.91
2022-10-09T00:50:53.329Z,100561.03
2022-10-09T00:53:22.899Z,100561.19
2022-10-09T00:55:50.018Z,100550.97
2022-10-09T00:58:16.863Z,100557.94
2022-10-09T01:00:43.443Z,100551.53
2022-10-09T01:03:10.091Z,100552.34
2022-10-09T01:06:10.190Z,100545.22
2022-10-09T01:08:49.457Z,100552.72
2022-10-09T01:11:49.359Z,100545.72
2022-10-09T01:14:21.714Z,100550.47
2022-10-09T01:17:14.699Z,100548.81
2022-10-09T01:20:01.485Z,100542.97
2022-10-09T01:22:47.057Z,100547.25
2022-10-09T01:25:35.096Z,100545.66
2022-10-09T01:28:05.896Z,100552.00
2022-10-09T01:30:33.315Z,100548.19
2022-10-09T01:33:00.458Z,100541.38
2022-10-09T01:35:27.404Z,100543.25
2022-10-09T01:37:56.267Z,100548.91
2022-10-09T01:40:24.985Z,100545.56
2022-10-09T01:42:52.086Z,100546.13
2022-10-09T01:45:18.785Z,100548.56
2022-10-09T01:47:45.438Z,100553.22
2022-10-09T01:50:21.808Z,100551.31
2022-10-09T01:52:52.406Z,100557.09
2022-10-09T01:55:46.913Z,100541.28
2022-10-09T01:58:16.177Z,100550.47
2022-10-09T02:01:08.379Z,100553.84
2022-10-09T02:03:38.680Z,100556.66
2022-10-09T02:06:07.299Z,100558.47
2022-10-09T02:08:36.956Z,100560.72
2022-10-09T02:11:05.013Z,100562.03
2022-10-09T02:13:33.324Z,100564.31
2022-10-09T02:16:34.757Z,100566.34
2022-10-09T02:19:21.631Z,100565.47
2022-10-09T02:22:04.856Z,100570.28
2022-10-09T02:24:32.827Z,100563.47
2022-10-09T02:27:00.768Z,100564.50
2022-10-09T02:29:27.362Z,100569.19
2022-10-09T02:31:54.013Z,100573.53
2022-10-09T02:34:21.111Z,100570.97
2022-10-09T02:36:48.647Z,100577.06
2022-10-09T02:39:15.592Z,100581.44
2022-10-09T02:41:42.179Z,100575.13
2022-10-09T02:44:09.054Z,100582.00
2022-10-09T02:46:35.760Z,100587.09
2022-10-09T02:49:02.615Z,100591.47
2022-10-09T02:51:29.185Z,100581.91
2022-10-09T02:53:55.980Z,100586.44
2022-10-09T02:56:23.493Z,100591.00
2022-10-09T02:58:50.204Z,100585.84
2022-10-09T03:01:17.003Z,100584.63
2022-10-09T03:03:43.769Z,100592.41
2022-10-09T03:06:13.221Z,100591.56
2022-10-09T03:08:42.478Z,100595.06
2022-10-09T03:11:10.011Z,100605.34
2022-10-09T03:13:36.655Z,100599.06
2022-10-09T03:16:05.189Z,100605.06
2022-10-09T03:18:31.942Z,100598.13
2022-10-09T03:20:58.799Z,100605.47
2022-10-09T03:23:25.897Z,100596.38
2022-10-09T03:26:00.559Z,100597.06
2022-10-09T03:28:27.598Z,100602.06
2022-10-09T03:30:54.596Z,100600.84
2022-10-09T03:33:21.585Z,100604.63
2022-10-09T03:35:49.853Z,100603.53
2022-10-09T03:38:16.885Z,100604.56
2022-10-09T03:40:43.471Z,100612.22
2022-10-09T03:43:10.026Z,100618.75
2022-10-09T03:45:39.848Z,100610.25
2022-10-09T03:48:06.995Z,100613.81
2022-10-09T03:50:33.861Z,100611.97
2022-10-09T03:53:00.479Z,100611.81
2022-10-09T03:55:27.060Z,100613.69
2022-10-09T03:57:53.748Z,100613.44
2022-10-09T04:00:20.329Z,100619.47
2022-10-09T04:02:47.359Z,100626.47
2022-10-09T04:05:14.130Z,100623.97
2022-10-09T04:07:40.723Z,100623.81
2022-10-09T04:10:07.720Z,100614.13
2022-10-09T04:12:34.383Z,100615.03
2022-10-09T04:15:01.107Z,100632.63
2022-10-09T04:17:27.707Z,100625.38
2022-10-09T04:19:54.300Z,100625.25
2022-10-09T04:22:20.934Z,100624.13
2022-10-09T04:24:47.537Z,100621.31
2022-10-09T04:27:14.419Z,100616.16
2022-10-09T04:29:40.998Z,100623.00
2022-10-09T04:32:07.618Z,100618.50
2022-10-09T04:34:34.217Z,100625.75
2022-10-09T04:37:00.820Z,100638.63
2022-10-09T04:39:27.402Z,100634.91
2022-10-09T04:41:54.011Z,100641.19
2022-10-09T04:44:20.597Z,100641.94
2022-10-09T04:46:50.250Z,100644.69
2022-10-09T04:49:17.188Z,100643.84
2022-10-09T04:51:44.347Z,100647.22
2022-10-09T04:54:11.788Z,100654.22
2022-10-09T04:56:39.534Z,100647.94
2022-10-09T04:59:06.178Z,100655.69
2022-10-09T05:01:38.091Z,100661.53
2022-10-09T05:04:05.266Z,100664.28
2022-10-09T05:06:32.051Z,100667.56
2022-10-09T05:08:58.699Z,100676.06
2022-10-09T05:11:26.177Z,100687.19
2022-10-09T05:13:56.069Z,100682.72
2022-10-09T05:16:27.295Z,100686.00
2022-10-09T05:18:56.790Z,100679.84
2022-10-09T05:21:24.046Z,100684.88
2022-10-09T05:23:51.071Z,100676.97
2022-10-09T05:26:19.841Z,100669.78
2022-10-09T05:28:47.257Z,100681.19
2022-10-09T05:31:27.452Z,100686.25
2022-10-09T05:33:56.083Z,100682.91
2022-10-09T05:36:22.679Z,100676.41
2022-10-09T05:38:49.393Z,100680.09
2022-10-09T05:41:18.173Z,100692.00
2022-10-09T05:43:46.821Z,100699.31
2022-10-09T05:46:16.600Z,100705.56
2022-10-09T05:48:45.413Z,100703.44
2022-10-09T05:51:11.920Z,100707.06
2022-10-09T05:53:39.985Z,100697.56
2022-10-09T05:56:33.943Z,100706.00
2022-10-09T05:59:06.508Z,100702.47
2022-10-09T06:01:36.418Z,100716.66
2022-10-09T06:04:04.141Z,100714.94
2022-10-09T06:06:32.834Z,100718.22
2022-10-09T06:08:59.519Z,100727.03
2022-10-09T06:11:29.068Z,100725.41
2022-10-09T06:13:56.289Z,100724.28
2022-10-09T06:16:25.751Z,100731.44
2022-10-09T06:18:53.985Z,100731.38
2022-10-09T06:21:20.775Z,100726.72
2022-10-09T06:23:54.858Z,100727.63
2022-10-09T06:26:22.889Z,100740.00
2022-10-09T06:28:50.176Z,100741.03
2022-10-09T06:31:19.597Z,100744.69
2022-10-09T06:33:48.205Z,100742.25
2022-10-09T06:36:20.708Z,100746.31
2022-10-09T06:38:47.604Z,100755.88
2022-10-09T06:41:19.746Z,100758.09
2022-10-09T06:43:55.083Z,100758.06
2022-10-09T06:46:24.310Z,100761.88
2022-10-09T06:48:51.069Z,100774.19
2022-10-09T06:51:19.874Z,100770.41
2022-10-09T06:53:49.253Z,100763.94
2022-10-09T06:56:18.157Z,100775.44
2022-10-09T06:58:44.965Z,100773.94
2022-10-09T07:01:17.536Z,100779.25
2022-10-09T07:03:46.954Z,100779.78
2022-10-09T07:06:22.509Z,100784.72
2022-10-09T07:08:53.599Z,100784.06
2022-10-09T07:11:26.184Z,100791.25
2022-10-09T07:14:01.777Z,100786.19
2022-10-09T07:16:32.016Z,100793.78
2022-10-09T07:18:59.455Z,100796.13
2022-10-09T07:21:26.075Z,100796.72
2022-10-09T07:23:53.004Z,100791.44
2022-10-09T07:26:22.909Z,100795.78
2022-10-09T07:28:49.723Z,100803.31
2022-10-09T07:31:17.469Z,100802.97
2022-10-09T07:33:47.617Z,100808.16
2022-10-09T07:36:14.227Z,100813.84
2022-10-09T07:38:40.828Z,100808.44
2022-10-09T07:41:10.026Z,100817.44
2022-10-09T07:43:38.901Z,100822.56
2022-10-09T07:46:08.781Z,100814.16
2022-10-09T07:48:35.767Z,100814.19
2022-10-09T07:51:17.650Z,100821.00
2022-10-09T07:53:44.228Z,100815.75
2022-10-09T07:56:20.254Z,100823.38
2022-10-09T07:58:54.481Z,100815.38
2022-10-09T08:01:22.707Z,100815.69
2022-10-09T08:03:50.337Z,100813.75
2022-10-09T08:06:18.840Z,100826.84
2022-10-09T08:09:12.687Z,100823.28
2022-10-09T08:11:39.319Z,100824.16
2022-10-09T08:14:06.213Z,100821.09
2022-10-09T08:16:32.806Z,100827.22
2022-10-09T08:19:00.735Z,100831.34
2022-10-09T08:21:27.855Z,100826.94
2022-10-09T08:23:56.795Z,100825.97
2022-10-09T08:26:24.636Z,100831.53
2022-10-09T08:28:54.151Z,100828.47
2022-10-09T08:31:22.035Z,100830.13
2022-10-09T08:33:52.872Z,100830.72
2022-10-09T08:36:19.481Z,100834.06
2022-10-09T08:38:47.811Z,100840.13
2022-10-09T08:41:32.628Z,100838.28
2022-10-09T08:44:13.835Z,100846.13
2022-10-09T08:46:57.481Z,100850.94
2022-10-09T08:49:32.894Z,100856.06
2022-10-09T08:52:32.836Z,100863.75
2022-10-09T08:55:11.844Z,100856.78
2022-10-09T08:57:39.299Z,100863.63
2022-10-09T09:00:17.056Z,100860.63
2022-10-09T09:03:14.146Z,100857.56
2022-10-09T09:05:48.850Z,100858.50
2022-10-09T09:08:37.163Z,100870.72
2022-10-09T09:11:21.961Z,100854.59
2022-10-09T09:14:18.221Z,100859.16
2022-10-09T09:16:59.150Z,100865.28
2022-10-09T09:19:34.670Z,100865.59
2022-10-09T09:22:01.592Z,100869.72
2022-10-09T09:24:36.020Z,100870.91
2022-10-09T09:27:12.486Z,100871.50
2022-10-09T09:29:43.917Z,100874.88
2022-10-09T09:32:19.579Z,100877.16
2022-10-09T09:34:46.227Z,100878.91
2022-10-09T09:37:13.589Z,100883.38
2022-10-09T09:42:28.576Z,100882.81
2022-10-09T09:45:03.287Z,100884.84
2022-10-09T09:47:47.025Z,100888.00
2022-10-09T09:50:35.125Z,100880.28
2022-10-09T09:53:15.686Z,100884.63
2022-10-09T09:55:42.626Z,100888.44
2022-10-09T09:58:16.895Z,100881.81
2022-10-09T10:00:56.466Z,100888.13
2022-10-09T10:03:24.647Z,100889.38
2022-10-09T10:05:51.966Z,100888.34
2022-10-09T10:08:21.510Z,100889.22
2022-10-09T10:10:50.166Z,100888.41
2022-10-09T10:13:20.851Z,100887.13
2022-10-09T10:15:56.075Z,100889.91
2022-10-09T10:18:25.989Z,100892.47
2022-10-09T10:21:13.318Z,100888.56
2022-10-09T10:23:43.234Z,100899.88
2022-10-09T10:26:21.832Z,100895.22
2022-10-09T10:28:56.648Z,100896.66
2022-10-09T10:32:02.955Z,100894.13
2022-10-09T10:34:53.920Z,100889.41
2022-10-09T10:37:44.691Z,100891.19
2022-10-09T10:40:21.848Z,100898.16
2022-10-09T10:43:10.031Z,100894.34
2022-10-09T10:45:45.351Z,100903.63
2022-10-09T10:48:31.720Z,100900.63
2022-10-09T10:51:25.504Z,100901.84
2022-10-09T10:54:10.847Z,100897.13
2022-10-09T10:57:03.491Z,100895.16
2022-10-09T10:59:38.800Z,100886.59
2022-10-09T11:02:33.162Z,100891.03
2022-10-09T11:05:31.498Z,100884.69
2022-10-09T11:08:15.537Z,100876.75
2022-10-09T11:11:03.279Z,100880.44
2022-10-09T11:13:33.897Z,100880.34
2022-10-09T11:16:15.368Z,100883.63
2022-10-09T11:19:03.893Z,100873.31
2022-10-09T11:21:42.642Z,100881.06
2022-10-09T11:24:37.122Z,100884.81
2022-10-09T11:27:36.023Z,100877.59
2022-10-09T11:30:06.225Z,100865.03
2022-10-09T11:32:51.915Z,100867.88
2022-10-09T11:35:21.682Z,100870.44
2022-10-09T11:38:10.000Z,100865.22
2022-10-09T11:40:43.348Z,100864.13
2022-10-09T11:43:27.932Z,100864.66
2022-10-09T11:46:04.826Z,100867.84
2022-10-09T11:49:05.399Z,100869.00
2022-10-09T11:51:51.563Z,100862.25
2022-10-09T11:54:21.868Z,100857.59
2022-10-09T11:56:58.112Z,100855.34
2022-10-09T11:59:30.366Z,100855.53
2022-10-09T12:02:00.255Z,100854.66
2022-10-09T12:04:53.932Z,100857.97
2022-10-09T12:07:36.787Z,100855.88
2022-10-09T12:10:21.618Z,100853.81
2022-10-09T12:13:06.464Z,100853.81
2022-10-09T12:15:44.994Z,100846.78
2022-10-09T12:18:46.832Z,100857.53
2022-10-09T12:21:30.914Z,100858.44
2022-10-09T12:23:58.469Z,100855.78
2022-10-09T12:26:25.891Z,100851.75
2022-10-09T12:28:55.855Z,100851.66
2022-10-09T12:31:30.746Z,100858.47
2022-10-09T12:34:24.235Z,100849.84
2022-10-09T12:36:50.851Z,100855.38
2022-10-09T12:39:22.338Z,100845.88
2022-10-09T12:41:56.204Z,100846.25
2022-10-09T12:44:34.563Z,100850.81
2022-10-09T12:47:07.508Z,100842.94
2022-10-09T12:49:34.348Z,100844.91
2022-10-09T12:52:01.636Z,100838.13
2022-10-09T12:54:30.661Z,100842.94
2022-10-09T12:56:58.463Z,100843.56
2022-10-09T12:59:26.409Z,100834.69
2022-10-09T13:01:58.225Z,100825.81
2022-10-09T13:04:33.932Z,100823.56
2022-10-09T13:07:06.850Z,100825.81
2022-10-09T13:09:38.413Z,100816.72
2022-10-09T13:12:09.211Z,100821.41
2022-10-09T13:14:40.986Z,100823.97
2022-10-09T13:17:33.005Z,100818.69
2022-10-09T13:20:23.444Z,100817.69
2022-10-09T13:22:58.513Z,100814.81
2022-10-09T13:25:28.677Z,100811.97
2022-10-09T13:27:56.537Z,100810.88
2022-10-09T13:30:23.101Z,100817.44
2022-10-09T13:32:49.791Z,100804.63
2022-10-09T13:35:17.210Z,100807.63
2022-10-09T13:38:20.685Z,100809.47
2022-10-09T13:40:47.246Z,100808.69
2022-10-09T13:43:23.751Z,100806.41
2022-10-09T13:45:50.453Z,100807.66
2022-10-09T13:48:17.095Z,100809.63
2022-10-09T13:50:44.212Z,100802.69
2022-10-09T13:53:10.994Z,100802.72
2022-10-09T13:55:37.639Z,100794.69
2022-10-09T13:58:04.418Z,100801.38
2022-10-09T14:00:31.258Z,100795.16
2022-10-09T14:02:58.137Z,100794.56
2022-10-09T14:05:24.721Z,100800.28
2022-10-09T14:07:51.525Z,100797.81
2022-10-09T14:10:23.572Z,100796.31
2022-10-09T14:12:50.819Z,100795.31
2022-10-09T14:15:18.142Z,100792.78
2022-10-09T14:17:44.756Z,100795.97
2022-10-09T14:20:11.399Z,100807.25
2022-10-09T14:22:38.129Z,100795.94
2022-10-09T14:25:05.164Z,100801.69
2022-10-09T14:30:05.024Z,100796.81
2022-10-09T14:32:31.721Z,100795.50
2022-10-09T14:34:58.305Z,100797.56
2022-10-09T14:37:40.419Z,100800.81
2022-10-09T14:40:08.568Z,100802.44
2022-10-09T14:42:36.941Z,100805.03
2022-10-09T14:45:04.176Z,100802.41
2022-10-09T14:47:30.823Z,100799.66
2022-10-09T14:49:57.560Z,100798.81
2022-10-09T14:52:24.139Z,100806.03
2022-10-09T14:54:50.708Z,100804.25
2022-10-09T14:57:17.295Z,100810.13
2022-10-09T14:59:43.899Z,100804.19
2022-10-09T15:02:15.020Z,100811.09
2022-10-09T15:04:41.686Z,100808.66
2022-10-09T15:07:08.786Z,100802.59
2022-10-09T15:09:35.447Z,100811.84
2022-10-09T15:12:02.010Z,100813.47
2022-10-09T15:14:28.630Z,100812.53
2022-10-09T15:16:55.290Z,100824.78
2022-10-09T15:19:21.892Z,100815.69
2022-10-09T15:21:48.449Z,100815.78
2022-10-09T15:24:15.060Z,100814.94
2022-10-09T15:26:41.626Z,100820.88
2022-10-09T15:29:09.234Z,100829.97
2022-10-09T15:31:38.440Z,100827.53
2022-10-09T15:34:06.248Z,100824.84
2022-10-09T15:36:36.801Z,100830.47
2022-10-09T15:39:04.578Z,100826.97
2022-10-09T15:41:34.546Z,100829.19
2022-10-09T15:44:04.143Z,100831.78
2022-10-09T15:46:31.457Z,100834.09
2022-10-09T15:48:58.080Z,100836.59
2022-10-09T15:51:24.994Z,100827.94
2022-10-09T15:53:52.919Z,100829.03
2022-10-09T15:56:24.646Z,100830.78
2022-10-09T15:58:52.527Z,100830.66
2022-10-09T16:01:20.584Z,100831.75
2022-10-09T16:03:48.167Z,100839.53
2022-10-09T16:06:20.225Z,100838.41
2022-10-09T16:08:47.479Z,100839.91
2022-10-09T16:11:17.969Z,100839.31
2022-10-09T16:13:46.951Z,100848.53
2022-10-09T16:16:16.774Z,100853.31
2022-10-09T16:18:43.657Z,100858.88
2022-10-09T16:21:17.045Z,100855.63
2022-10-09T16:23:44.424Z,100859.50
2022-10-09T16:26:14.537Z,100855.38
2022-10-09T16:28:41.378Z,100861.81
2022-10-09T16:31:08.050Z,100865.84
2022-10-09T16:33:34.846Z,100859.72
2022-10-09T16:36:09.875Z,100868.00
2022-10-09T16:38:37.133Z,100871.84
2022-10-09T16:41:08.180Z,100881.38
2022-10-09T16:43:35.169Z,100870.13
2022-10-09T16:46:12.817Z,100880.28
2022-10-09T16:48:39.380Z,100876.16
2022-10-09T16:51:14.552Z,100879.84
2022-10-09T16:53:41.680Z,100882.22
2022-10-09T16:56:14.460Z,100891.50
2022-10-09T16:58:42.831Z,100894.59
2022-10-09T17:01:10.785Z,100888.84
2022-10-09T17:03:38.481Z,100895.16
2022-10-09T17:06:14.534Z,100897.47
2022-10-09T17:08:41.964Z,100907.78
2022-10-09T17:11:09.757Z,100903.25
2022-10-09T17:13:36.747Z,100907.06
2022-10-09T17:16:18.511Z,100913.53
2022-10-09T17:18:46.577Z,100909.34
2022-10-09T17:21:14.492Z,100907.34
2022-10-09T17:23:41.531Z,100905.56
2022-10-09T17:26:17.073Z,100905.16
2022-10-09T17:28:44.617Z,100908.06
2022-10-09T17:31:17.255Z,100912.25
2022-10-09T17:33:45.311Z,100912.25
2022-10-09T17:36:14.778Z,100911.72
2022-10-09T17:38:41.345Z,100906.09
2022-10-09T17:41:09.811Z,100916.25
2022-10-09T17:43:36.990Z,100914.78
2022-10-09T17:46:04.452Z,100910.44
2022-10-09T17:48:32.874Z,100914.22
2022-10-09T17:51:00.884Z,100916.25
2022-10-09T17:53:27.990Z,100916.84
2022-10-09T17:55:57.038Z,100919.72
2022-10-09T17:58:24.522Z,100919.16
2022-10-09T18:00:51.647Z,100920.22
2022-10-09T18:03:18.927Z,100918.34
2022-10-09T18:05:48.027Z,100921.38
2022-10-09T18:08:17.784Z,100918.97
2022-10-09T18:10:45.423Z,100919.94
2022-10-09T18:13:12.441Z,100916.66
2022-10-09T18:15:43.459Z,100919.84
2022-10-09T18:18:11.106Z,100922.69
2022-10-09T18:20:39.044Z,100919.91
2022-10-09T18:23:06.417Z,100920.16
2022-10-09T18:25:33.307Z,100929.38
2022-10-09T18:28:00.118Z,100932.03
2022-10-09T18:30:26.887Z,100926.94
2022-10-09T18:32:53.590Z,100933.38
2022-10-09T18:35:20.354Z,100934.66
2022-10-09T18:37:46.935Z,100934.50
2022-10-09T18:40:13.511Z,100941.50
2022-10-09T18:42:40.082Z,100942.78
2022-10-09T18:45:07.368Z,100945.09
2022-10-09T18:47:35.111Z,100955.09
2022-10-09T18:50:08.353Z,100958.78
2022-10-09T18:52:37.024Z,100954.81
2022-10-09T18:55:05.973Z,100952.63
2022-10-09T18:57:32.784Z,100960.09
2022-10-09T19:00:01.643Z,100965.22
2022-10-09T19:02:28.243Z,100958.53
2022-10-09T19:04:54.926Z,100953.56
2022-10-09T19:07:21.775Z,100958.94
2022-10-09T19:09:48.385Z,100961.88
2022-10-09T19:12:19.338Z,100965.59
2022-10-09T19:14:46.390Z,100968.66
2022-10-09T19:17:14.342Z,100973.78
2022-10-09T19:19:41.144Z,100972.03
2022-10-09T19:22:09.737Z,100973.72
2022-10-09T19:24:39.466Z,100977.34
2022-10-09T19:27:06.018Z,100982.84
2022-10-09T19:29:32.588Z,100975.94
2022-10-09T19:31:59.178Z,100987.50
2022-10-09T19:34:25.765Z,100986.28
2022-10-09T19:36:52.479Z,100989.72
2022-10-09T19:39:19.082Z,100991.41
2022-10-09T19:41:46.008Z,100994.13
2022-10-09T19:44:15.482Z,100994.22
2022-10-09T19:46:42.115Z,101004.13
2022-10-09T19:49:09.447Z,101007.72
2022-10-09T19:51:36.396Z,101008.34
2022-10-09T19:54:04.777Z,101014.44
2022-10-09T19:56:33.208Z,101013.41
2022-10-09T19:59:02.228Z,101014.34
2022-10-09T20:01:30.339Z,101014.34
2022-10-09T20:03:59.409Z,101014.72
2022-10-09T20:06:27.024Z,101020.50
2022-10-09T20:08:54.442Z,101024.00
2022-10-09T20:11:21.846Z,101019.97
2022-10-09T20:13:53.522Z,101022.03
2022-10-09T20:16:22.660Z,101016.69
2022-10-09T20:18:49.275Z,101022.44
2022-10-09T20:21:17.089Z,101025.78
2022-10-09T20:23:43.872Z,101028.19
2022-10-09T20:26:19.082Z,101019.72
2022-10-09T20:28:47.911Z,101024.41
2022-10-09T20:31:17.295Z,101024.13
2022-10-09T20:33:45.579Z,101025.97
2022-10-09T20:36:23.338Z,101025.72
2022-10-09T20:38:50.083Z,101026.81
2022-10-09T20:41:16.945Z,101031.03
2022-10-09T20:43:43.558Z,101031.91
2022-10-09T20:46:13.538Z,101039.22
2022-10-09T20:48:41.841Z,101040.66
2022-10-09T20:51:08.792Z,101036.28
2022-10-09T20:53:35.821Z,101041.94
2022-10-09T20:56:07.828Z,101041.06
2022-10-09T20:58:35.160Z,101040.47
2022-10-09T21:01:05.192Z,101028.75
2022-10-09T21:03:32.620Z,101030.78
2022-10-09T21:06:03.009Z,101034.94
2022-10-09T21:08:29.812Z,101039.63
2022-10-09T21:10:56.464Z,101035.34
2022-10-09T21:13:23.153Z,101037.38
2022-10-09T21:15:50.989Z,101042.84
2022-10-09T21:18:19.352Z,101035.53
2022-10-09T21:20:47.488Z,101037.47
2022-10-09T21:23:16.422Z,101041.66
2022-10-09T21:25:51.839Z,101039.31
2022-10-09T21:28:20.054Z,101039.66
2022-10-09T21:30:46.778Z,101032.28
2022-10-09T21:33:14.023Z,101032.47
2022-10-09T21:35:46.313Z,101027.06
2022-10-09T21:38:15.712Z,101035.66
2022-10-09T21:40:42.879Z,101034.78
2022-10-09T21:43:10.063Z,101022.81
2022-10-09T21:45:39.915Z,101025.59
2022-10-09T21:48:06.869Z,101027.44
2022-10-09T21:50:34.190Z,101024.69
2022-10-09T21:53:01.194Z,101023.50
2022-10-09T21:55:28.238Z,101029.25
2022-10-09T21:57:55.022Z,101020.34
2022-10-09T22:00:21.622Z,101020.75
2022-10-09T22:02:48.476Z,101023.50
2022-10-09T22:05:15.299Z,101019.94
2022-10-09T22:07:41.863Z,101023.88
2022-10-09T22:10:08.888Z,101016.16
2022-10-09T22:12:35.500Z,101022.31
2022-10-09T22:15:04.154Z,101014.75
2022-10-09T22:17:30.722Z,101021.31
2022-10-09T22:19:57.298Z,101023.72
2022-10-09T22:22:24.993Z,101026.75
2022-10-09T22:24:52.040Z,101024.06
2022-10-09T22:27:18.898Z,101025.25
2022-10-09T22:29:45.497Z,101026.44
2022-10-09T22:32:12.089Z,101029.88
2022-10-09T22:34:38.693Z,101025.34
2022-10-09T22:37:05.298Z,101026.44
2022-10-09T22:39:31.886Z,101025.84
2022-10-09T22:41:58.452Z,101016.47
2022-10-09T22:44:25.032Z,101023.72
2022-10-09T22:46:51.847Z,101024.66
2022-10-09T22:49:18.619Z,101018.78
2022-10-09T22:51:45.468Z,101024.97
2022-10-09T22:54:13.524Z,101029.06
2022-10-09T22:56:44.146Z,101027.72
2022-10-09T22:59:14.479Z,101026.28
2022-10-09T23:01:45.746Z,101024.78
2022-10-09T23:04:14.646Z,101029.09
2022-10-09T23:06:42.659Z,101034.00
2022-10-09T23:09:12.833Z,101041.13
2022-10-09T23:11:39.519Z,101038.41
2022-10-09T23:14:06.247Z,101036.75
2022-10-09T23:16:33.976Z,101042.47
2022-10-09T23:19:06.093Z,101033.13
2022-10-09T23:21:34.286Z,101044.13
2022-10-09T23:24:01.985Z,101044.06
2022-10-09T23:26:31.711Z,101041.56
2022-10-09T23:29:01.031Z,101045.75
2022-10-09T23:31:28.899Z,101048.41
2022-10-09T23:33:56.615Z,101044.91
2022-10-09T23:36:26.908Z,101048.06
2022-10-09T23:38:54.301Z,101049.13
2022-10-09T23:41:26.459Z,101050.38
2022-10-09T23:43:53.868Z,101049.47
2022-10-09T23:46:26.505Z,101045.31
2022-10-09T23:48:53.396Z,101043.22
2022-10-09T23:51:22.398Z,101042.41
2022-10-09T23:53:48.974Z,101046.81
2022-10-09T23:56:29.969Z,101041.34
2022-10-09T23:58:58.054Z,101041.72
